Nahant, MA (01908)

2:56 PM EDT on May 06, 2015 (GMT -0400)
Winthrop Beach | | Change Station
CLOSE
Current Station
Personal Weather Station
Location: Winthrop, MA
Elevation: 15 ft
Nearby Weather Stations

Elev 15 ft 42.38 °N, 70.97 °W | Updated 8 minutes ago

Partly Cloudy
Partly Cloudy
63.3 °F
Feels Like 63.3 °F
N
7.0
Wind Variable Wind from SE
Gusts 12.0 mph

Today
High -- | Low -- °F
--% Chance of Precip.
Yesterday
High -- | Low -- °F
Precip. -- in
5:32 AM 7:48 PM
Waning Gibbous, 93% visible
Pressure 30.25 in
Visibility 10.0 miles
Clouds Few 6000 ft
Scattered Clouds 16000 ft
Scattered Clouds 25000 ft
Dew Point 45 °F
Humidity 52%
Rainfall 0.00 in
Snow Depth Not available.
UV 1.9 out of 12
Pollen 11.00 out of 12
Air Quality Not available.
Flu Activity Widespread
METAR KBOS 061754Z 13008KT 10SM FEW060 SCT160 SCT250 18/04 A3025 RMK AO2 SLP242 T01830044 10194 20156 58022

More Conditions Fewer Conditions

Pressure 30.25 in
Visibility 10.0 miles
Clouds Few 6000 ft
Scattered Clouds 16000 ft
Scattered Clouds 25000 ft
Dew Point 45 °F
Humidity 52%
Rainfall 0.00 in
Snow Depth Not available.
UV 1.9 out of 12
Pollen 11.00 out of 12
Air Quality Not available.
Flu Activity Widespread
METAR KBOS 061754Z 13008KT 10SM FEW060 SCT160 SCT250 18/04 A3025 RMK AO2 SLP242 T01830044 10194 20156 58022

More Conditions Fewer Conditions

10-Day Weather Forecast

Almanac

Astronomy

May. 06, 2015 Rise Set
Actual Time
Civil Twilight
Nautical Twilight
Astronomical Twilight
Moon
Length of Visible Light
Length of Day
Tomorrow will be .
, % of the Moon is Illuminated

Today's Extremes

State Highs State Lows

Community

WunderPhotos

Upload Photos

1,818,990 photos uploaded!

WunderBlogs® & News

Nearby

Air Quality

  Air Quality AQ Index Pollutant
Not available.

Snow Depth

Station Depth Elevation

Earthquake Activity

City Distance Mag. Time & Date
Minimum magnitude displayed is 2.5.

Coastal Water Temperatures

Place Temperature

Stations

Nearby Weather Stations

Station Location Temp. Windchill Dew Point Humidity Wind Precip. Elev Updated Type